4.300 kWh

EHAM AMSTERDAM/SCHIPHOL NLD -3 m.
METAR EHAM 181555Z 24014KT 210V280 9999 FEW028 BKN037 21/13 Q1021
NOSIG

EHAM AMSTERDAM/SCHIPHOL NLD -3 m.
TAF EHAM 181106Z 1812/1918 24015KT 9999 SCT030
BECMG 1818/1821 20006KT CAVOK
BECMG 1902/1905 6000 FEW008
PROB40 1904/1908 3500 BR BKN006
BECMG 1908/1911 23014KT 9999 SCT020